sensor_id;sensor_type;location;lat;lon;timestamp;pressure;altitude;pressure_sealevel;temperature;humidity
49473;BME280;73594;50.944;6.950;2024-03-22T00:02:06;101736.41;;;10.91;96.67
49473;BME280;73594;50.944;6.950;2024-03-22T00:04:32;101735.69;;;10.84;97.63
49473;BME280;73594;50.944;6.950;2024-03-22T00:06:57;101741.44;;;10.76;97.95
49473;BME280;73594;50.944;6.950;2024-03-22T00:09:24;101740.34;;;10.65;98.53
49473;BME280;73594;50.944;6.950;2024-03-22T00:11:49;101745.53;;;10.55;99.26
49473;BME280;73594;50.944;6.950;2024-03-22T00:14:14;101741.88;;;10.49;99.53
49473;BME280;73594;50.944;6.950;2024-03-22T00:16:40;101739.03;;;10.44;100.00
49473;BME280;73594;50.944;6.950;2024-03-22T00:19:05;101732.41;;;10.40;100.00
49473;BME280;73594;50.944;6.950;2024-03-22T00:21:31;101741.22;;;10.36;100.00
49473;BME280;73594;50.944;6.950;2024-03-22T00:23:56;101738.41;;;10.30;100.00
49473;BME280;73594;50.944;6.950;2024-03-22T00:26:22;101724.53;;;10.27;100.00
49473;BME280;73594;50.944;6.950;2024-03-22T00:28:47;101731.81;;;10.26;100.00
49473;BME280;73594;50.944;6.950;2024-03-22T00:31:13;101729.88;;;10.45;100.00
49473;BME280;73594;50.944;6.950;2024-03-22T00:33:39;101736.94;;;10.46;100.00
49473;BME280;73594;50.944;6.950;2024-03-22T00:36:04;101739.03;;;10.44;100.00
49473;BME280;73594;50.944;6.950;2024-03-22T00:38:30;101727.72;;;10.36;100.00
49473;BME280;73594;50.944;6.950;2024-03-22T00:40:55;101732.88;;;10.37;100.00
49473;BME280;73594;50.944;6.950;2024-03-22T00:43:21;101719.78;;;10.52;100.00
49473;BME280;73594;50.944;6.950;2024-03-22T00:45:47;101710.94;;;10.45;100.00
49473;BME280;73594;50.944;6.950;2024-03-22T00:48:12;101712.47;;;10.41;100.00
49473;BME280;73594;50.944;6.950;2024-03-22T00:50:38;101706.03;;;10.54;99.87
49473;BME280;73594;50.944;6.950;2024-03-22T00:53:03;101709.56;;;10.54;99.89
49473;BME280;73594;50.944;6.950;2024-03-22T00:55:30;101709.19;;;10.51;100.00
49473;BME280;73594;50.944;6.950;2024-03-22T00:57:56;101694.38;;;10.42;100.00
49473;BME280;73594;50.944;6.950;2024-03-22T01:00:22;101694.56;;;10.40;100.00
49473;BME280;73594;50.944;6.950;2024-03-22T01:02:48;101690.69;;;10.36;100.00
49473;BME280;73594;50.944;6.950;2024-03-22T01:05:14;101685.16;;;10.31;100.00
49473;BME280;73594;50.944;6.950;2024-03-22T01:07:40;101672.13;;;10.28;100.00
49473;BME280;73594;50.944;6.950;2024-03-22T01:10:05;101676.94;;;10.26;100.00
49473;BME280;73594;50.944;6.950;2024-03-22T01:12:31;101680.69;;;10.25;100.00
49473;BME280;73594;50.944;6.950;2024-03-22T01:14:57;101662.47;;;10.20;100.00
49473;BME280;73594;50.944;6.950;2024-03-22T01:17:23;101668.06;;;10.19;100.00
49473;BME280;73594;50.944;6.950;2024-03-22T01:19:49;101665.44;;;10.30;100.00
49473;BME280;73594;50.944;6.950;2024-03-22T01:22:14;101665.09;;;10.39;100.00
49473;BME280;73594;50.944;6.950;2024-03-22T01:24:39;101668.75;;;10.44;100.00
49473;BME280;73594;50.944;6.950;2024-03-22T01:27:05;101665.31;;;10.37;100.00
49473;BME280;73594;50.944;6.950;2024-03-22T01:29:30;101674.34;;;10.31;100.00
49473;BME280;73594;50.944;6.950;2024-03-22T01:31:59;101657.19;;;10.25;100.00
49473;BME280;73594;50.944;6.950;2024-03-22T01:34:25;101654.13;;;10.22;100.00
49473;BME280;73594;50.944;6.950;2024-03-22T01:36:53;101646.03;;;10.22;100.00
49473;BME280;73594;50.944;6.950;2024-03-22T01:39:20;101641.88;;;10.19;100.00
49473;BME280;73594;50.944;6.950;2024-03-22T01:41:49;101650.38;;;10.23;100.00
49473;BME280;73594;50.944;6.950;2024-03-22T01:44:14;101643.69;;;10.25;100.00
49473;BME280;73594;50.944;6.950;2024-03-22T01:46:41;101645.09;;;10.28;100.00
49473;BME280;73594;50.944;6.950;2024-03-22T01:49:12;101630.28;;;10.30;100.00
49473;BME280;73594;50.944;6.950;2024-03-22T01:51:42;101628.88;;;10.28;100.00
49473;BME280;73594;50.944;6.950;2024-03-22T01:54:10;101626.06;;;10.23;100.00
49473;BME280;73594;50.944;6.950;2024-03-22T01:56:37;101628.75;;;10.23;100.00
49473;BME280;73594;50.944;6.950;2024-03-22T01:59:04;101631.91;;;10.20;100.00
49473;BME280;73594;50.944;6.950;2024-03-22T02:01:30;101629.66;;;10.17;100.00
49473;BME280;73594;50.944;6.950;2024-03-22T02:03:55;101622.25;;;10.12;100.00
49473;BME280;73594;50.944;6.950;2024-03-22T02:06:21;101619.56;;;10.12;100.00
49473;BME280;73594;50.944;6.950;2024-03-22T02:08:46;101615.22;;;10.11;100.00
49473;BME280;73594;50.944;6.950;2024-03-22T02:11:11;101617.31;;;10.09;100.00
49473;BME280;73594;50.944;6.950;2024-03-22T02:13:37;101596.84;;;10.01;100.00
49473;BME280;73594;50.944;6.950;2024-03-22T02:16:03;101601.19;;;10.02;100.00
49473;BME280;73594;50.944;6.950;2024-03-22T02:18:28;101604.50;;;10.05;100.00
49473;BME280;73594;50.944;6.950;2024-03-22T02:20:54;101602.88;;;10.03;100.00
49473;BME280;73594;50.944;6.950;2024-03-22T02:23:28;101603.00;;;10.09;100.00
49473;BME280;73594;50.944;6.950;2024-03-22T02:25:54;101598.06;;;10.06;100.00
49473;BME280;73594;50.944;6.950;2024-03-22T02:28:20;101602.53;;;10.12;100.00
49473;BME280;73594;50.944;6.950;2024-03-22T02:30:45;101594.66;;;10.10;100.00
49473;BME280;73594;50.944;6.950;2024-03-22T02:33:11;101587.84;;;10.08;100.00
49473;BME280;73594;50.944;6.950;2024-03-22T02:35:36;101584.44;;;10.12;100.00
49473;BME280;73594;50.944;6.950;2024-03-22T02:38:01;101585.38;;;10.18;100.00
49473;BME280;73594;50.944;6.950;2024-03-22T02:40:26;101568.00;;;10.14;100.00
49473;BME280;73594;50.944;6.950;2024-03-22T02:42:52;101584.78;;;10.16;100.00
49473;BME280;73594;50.944;6.950;2024-03-22T02:45:17;101560.94;;;10.13;100.00
49473;BME280;73594;50.944;6.950;2024-03-22T02:47:42;101566.84;;;10.21;100.00
49473;BME280;73594;50.944;6.950;2024-03-22T02:50:08;101562.84;;;10.24;100.00
49473;BME280;73594;50.944;6.950;2024-03-22T02:52:33;101560.72;;;10.38;100.00
49473;BME280;73594;50.944;6.950;2024-03-22T02:54:59;101543.84;;;10.42;100.00
49473;BME280;73594;50.944;6.950;2024-03-22T02:57:24;101544.91;;;10.41;100.00
49473;BME280;73594;50.944;6.950;2024-03-22T02:59:49;101546.53;;;10.42;100.00
49473;BME280;73594;50.944;6.950;2024-03-22T03:02:15;101536.31;;;10.44;100.00
49473;BME280;73594;50.944;6.950;2024-03-22T03:04:40;101536.56;;;10.43;100.00
49473;BME280;73594;50.944;6.950;2024-03-22T03:07:05;101531.84;;;10.50;100.00
49473;BME280;73594;50.944;6.950;2024-03-22T03:09:31;101533.25;;;10.52;100.00
49473;BME280;73594;50.944;6.950;2024-03-22T03:11:56;101536.91;;;10.46;100.00
49473;BME280;73594;50.944;6.950;2024-03-22T03:14:21;101536.91;;;10.46;100.00
49473;BME280;73594;50.944;6.950;2024-03-22T03:16:47;101525.59;;;10.49;100.00
49473;BME280;73594;50.944;6.950;2024-03-22T03:19:12;101530.44;;;10.47;100.00
49473;BME280;73594;50.944;6.950;2024-03-22T03:21:37;101534.91;;;10.42;100.00
49473;BME280;73594;50.944;6.950;2024-03-22T03:24:03;101537.69;;;10.58;100.00
49473;BME280;73594;50.944;6.950;2024-03-22T03:26:28;101529.34;;;10.60;100.00
49473;BME280;73594;50.944;6.950;2024-03-22T03:28:54;101537.81;;;10.63;100.00
49473;BME280;73594;50.944;6.950;2024-03-22T03:31:21;101530.88;;;10.56;100.00
49473;BME280;73594;50.944;6.950;2024-03-22T03:33:46;101517.97;;;10.46;100.00
49473;BME280;73594;50.944;6.950;2024-03-22T03:36:12;101529.25;;;10.55;100.00
49473;BME280;73594;50.944;6.950;2024-03-22T03:38:37;101525.59;;;10.49;100.00
49473;BME280;73594;50.944;6.950;2024-03-22T03:41:03;101517.41;;;10.44;100.00
49473;BME280;73594;50.944;6.950;2024-03-22T03:43:28;101517.16;;;10.46;100.00
49473;BME280;73594;50.944;6.950;2024-03-22T03:45:55;101504.47;;;10.46;100.00
49473;BME280;73594;50.944;6.950;2024-03-22T03:48:20;101513.03;;;10.43;100.00
49473;BME280;73594;50.944;6.950;2024-03-22T03:50:54;101501.03;;;10.39;100.00
49473;BME280;73594;50.944;6.950;2024-03-22T03:53:21;101499.97;;;10.40;100.00
49473;BME280;73594;50.944;6.950;2024-03-22T03:55:47;101500.09;;;10.33;100.00
49473;BME280;73594;50.944;6.950;2024-03-22T03:58:12;101491.75;;;10.35;100.00
49473;BME280;73594;50.944;6.950;2024-03-22T04:00:37;101493.78;;;10.28;100.00
49473;BME280;73594;50.944;6.950;2024-03-22T04:03:03;101490.38;;;10.21;100.00
49473;BME280;73594;50.944;6.950;2024-03-22T04:05:28;101497.41;;;10.22;100.00
49473;BME280;73594;50.944;6.950;2024-03-22T04:07:53;101496.13;;;10.24;100.00
49473;BME280;73594;50.944;6.950;2024-03-22T04:10:19;101492.59;;;10.24;100.00
49473;BME280;73594;50.944;6.950;2024-03-22T04:12:46;101483.09;;;10.21;100.00
49473;BME280;73594;50.944;6.950;2024-03-22T04:15:11;101481.66;;;10.19;100.00
49473;BME280;73594;50.944;6.950;2024-03-22T04:17:37;101488.59;;;10.15;100.00
49473;BME280;73594;50.944;6.950;2024-03-22T04:20:02;101487.88;;;10.08;100.00
49473;BME280;73594;50.944;6.950;2024-03-22T04:22:29;101477.41;;;9.99;100.00
49473;BME280;73594;50.944;6.950;2024-03-22T04:24:54;101478.34;;;9.93;100.00
49473;BME280;73594;50.944;6.950;2024-03-22T04:27:20;101479.53;;;9.86;100.00
49473;BME280;73594;50.944;6.950;2024-03-22T04:29:49;101474.94;;;9.75;100.00
49473;BME280;73594;50.944;6.950;2024-03-22T04:32:14;101469.44;;;9.69;100.00
49473;BME280;73594;50.944;6.950;2024-03-22T04:34:43;101477.59;;;9.63;100.00
49473;BME280;73594;50.944;6.950;2024-03-22T04:37:08;101462.00;;;9.53;100.00
49473;BME280;73594;50.944;6.950;2024-03-22T04:39:35;101463.16;;;9.46;100.00
49473;BME280;73594;50.944;6.950;2024-03-22T04:42:00;101456.81;;;9.40;100.00
49473;BME280;73594;50.944;6.950;2024-03-22T04:44:25;101448.84;;;9.45;100.00
49473;BME280;73594;50.944;6.950;2024-03-22T04:46:51;101444.50;;;9.44;100.00
49473;BME280;73594;50.944;6.950;2024-03-22T04:49:16;101442.84;;;9.43;100.00
49473;BME280;73594;50.944;6.950;2024-03-22T04:51:42;101440.50;;;9.47;100.00
49473;BME280;73594;50.944;6.950;2024-03-22T04:54:07;101432.19;;;9.48;100.00
49473;BME280;73594;50.944;6.950;2024-03-22T04:56:32;101436.88;;;9.53;100.00
49473;BME280;73594;50.944;6.950;2024-03-22T04:58:58;101430.53;;;9.59;100.00
49473;BME280;73594;50.944;6.950;2024-03-22T05:01:23;101430.53;;;9.59;100.00
49473;BME280;73594;50.944;6.950;2024-03-22T05:03:49;101424.22;;;9.65;100.00
49473;BME280;73594;50.944;6.950;2024-03-22T05:06:15;101419.88;;;9.64;100.00
49473;BME280;73594;50.944;6.950;2024-03-22T05:08:40;101408.25;;;9.63;100.00
49473;BME280;73594;50.944;6.950;2024-03-22T05:11:07;101418.81;;;9.65;100.00
49473;BME280;73594;50.944;6.950;2024-03-22T05:13:33;101422.13;;;9.67;100.00
49473;BME280;73594;50.944;6.950;2024-03-22T05:15:58;101421.66;;;9.70;100.00
49473;BME280;73594;50.944;6.950;2024-03-22T05:18:23;101420.38;;;9.73;100.00
49473;BME280;73594;50.944;6.950;2024-03-22T05:20:49;101420.72;;;9.76;100.00
49473;BME280;73594;50.944;6.950;2024-03-22T05:23:14;101416.72;;;9.79;100.00
49473;BME280;73594;50.944;6.950;2024-03-22T05:25:41;101423.41;;;9.88;100.00
49473;BME280;73594;50.944;6.950;2024-03-22T05:28:07;101408.59;;;9.90;100.00
49473;BME280;73594;50.944;6.950;2024-03-22T05:30:32;101407.31;;;9.93;100.00
49473;BME280;73594;50.944;6.950;2024-03-22T05:32:58;101403.78;;;9.92;100.00
49473;BME280;73594;50.944;6.950;2024-03-22T05:35:23;101396.84;;;9.96;100.00
49473;BME280;73594;50.944;6.950;2024-03-22T05:37:49;101398.41;;;10.04;100.00
49473;BME280;73594;50.944;6.950;2024-03-22T05:40:15;101400.88;;;10.06;100.00
49473;BME280;73594;50.944;6.950;2024-03-22T05:42:41;101397.34;;;10.05;100.00
49473;BME280;73594;50.944;6.950;2024-03-22T05:45:06;101400.50;;;10.02;100.00
49473;BME280;73594;50.944;6.950;2024-03-22T05:47:32;101408.25;;;10.10;100.00
49473;BME280;73594;50.944;6.950;2024-03-22T05:49:59;101409.06;;;10.11;100.00
49473;BME280;73594;50.944;6.950;2024-03-22T05:52:24;101403.31;;;10.07;100.00
49473;BME280;73594;50.944;6.950;2024-03-22T05:54:50;101394.03;;;10.15;100.00
49473;BME280;73594;50.944;6.950;2024-03-22T05:57:15;101405.91;;;10.25;100.00
49473;BME280;73594;50.944;6.950;2024-03-22T05:59:40;101400.84;;;10.29;100.00
49473;BME280;73594;50.944;6.950;2024-03-22T06:02:06;101392.50;;;10.30;100.00
49473;BME280;73594;50.944;6.950;2024-03-22T06:04:32;101390.72;;;10.36;100.00
49473;BME280;73594;50.944;6.950;2024-03-22T06:06:57;101390.13;;;10.46;100.00
49473;BME280;73594;50.944;6.950;2024-03-22T06:09:26;101396.19;;;10.53;100.00
49473;BME280;73594;50.944;6.950;2024-03-22T06:12:04;101380.84;;;10.70;100.00
49473;BME280;73594;50.944;6.950;2024-03-22T06:14:30;101374.59;;;10.70;100.00
49473;BME280;73594;50.944;6.950;2024-03-22T06:16:56;101389.28;;;10.74;100.00
49473;BME280;73594;50.944;6.950;2024-03-22T06:19:22;101377.78;;;10.78;100.00
49473;BME280;73594;50.944;6.950;2024-03-22T06:21:48;101385.72;;;10.85;100.00
49473;BME280;73594;50.944;6.950;2024-03-22T06:24:13;101382.44;;;10.83;100.00
49473;BME280;73594;50.944;6.950;2024-03-22T06:26:39;101382.53;;;10.88;100.00
49473;BME280;73594;50.944;6.950;2024-03-22T06:29:04;101372.44;;;10.83;100.00
49473;BME280;73594;50.944;6.950;2024-03-22T06:31:30;101380.41;;;10.90;100.00
49473;BME280;73594;50.944;6.950;2024-03-22T06:33:55;101384.75;;;10.91;100.00
49473;BME280;73594;50.944;6.950;2024-03-22T06:36:27;101379.91;;;10.93;100.00
49473;BME280;73594;50.944;6.950;2024-03-22T06:38:53;101371.22;;;10.91;100.00
49473;BME280;73594;50.944;6.950;2024-03-22T06:41:18;101376.31;;;11.04;100.00
49473;BME280;73594;50.944;6.950;2024-03-22T06:43:43;101372.47;;;11.00;100.00
49473;BME280;73594;50.944;6.950;2024-03-22T06:46:09;101381.56;;;11.11;100.00
49473;BME280;73594;50.944;6.950;2024-03-22T06:48:34;101375.78;;;11.19;100.00
49473;BME280;73594;50.944;6.950;2024-03-22T06:50:59;101383.72;;;11.25;100.00
49473;BME280;73594;50.944;6.950;2024-03-22T06:53:25;101379.63;;;11.40;100.00
49473;BME280;73594;50.944;6.950;2024-03-22T06:55:50;101372.97;;;11.47;100.00
49473;BME280;73594;50.944;6.950;2024-03-22T06:58:16;101379.97;;;11.60;100.00
49473;BME280;73594;50.944;6.950;2024-03-22T07:00:41;101370.09;;;11.71;100.00
49473;BME280;73594;50.944;6.950;2024-03-22T07:03:06;101365.66;;;11.81;100.00
49473;BME280;73594;50.944;6.950;2024-03-22T07:05:32;101362.28;;;11.91;100.00
49473;BME280;73594;50.944;6.950;2024-03-22T07:07:57;101357.56;;;12.03;99.93
49473;BME280;73594;50.944;6.950;2024-03-22T07:10:23;101360.16;;;12.15;100.00
49473;BME280;73594;50.944;6.950;2024-03-22T07:12:55;101360.03;;;12.27;98.34
49473;BME280;73594;50.944;6.950;2024-03-22T07:15:24;101363.13;;;12.35;97.61
49473;BME280;73594;50.944;6.950;2024-03-22T07:17:50;101355.97;;;12.51;96.48
49473;BME280;73594;50.944;6.950;2024-03-22T07:20:15;101355.00;;;12.62;95.97
49473;BME280;73594;50.944;6.950;2024-03-22T07:22:41;101355.44;;;12.76;98.77
49473;BME280;73594;50.944;6.950;2024-03-22T07:25:06;101363.16;;;12.89;98.18
49473;BME280;73594;50.944;6.950;2024-03-22T07:27:35;101356.72;;;13.00;94.28
49473;BME280;73594;50.944;6.950;2024-03-22T07:30:00;101363.31;;;13.04;94.18
49473;BME280;73594;50.944;6.950;2024-03-22T07:32:26;101352.75;;;13.08;95.26
49473;BME280;73594;50.944;6.950;2024-03-22T07:34:51;101357.41;;;13.12;93.75
49473;BME280;73594;50.944;6.950;2024-03-22T07:37:16;101348.19;;;13.13;92.80
49473;BME280;73594;50.944;6.950;2024-03-22T07:39:42;101355.31;;;13.20;91.91
49473;BME280;73594;50.944;6.950;2024-03-22T07:42:07;101345.63;;;13.29;92.20
49473;BME280;73594;50.944;6.950;2024-03-22T07:44:33;101348.09;;;13.35;90.88
49473;BME280;73594;50.944;6.950;2024-03-22T07:46:58;101341.41;;;13.43;91.73
49473;BME280;73594;50.944;6.950;2024-03-22T07:49:23;101336.03;;;13.53;93.23
49473;BME280;73594;50.944;6.950;2024-03-22T07:51:49;101335.56;;;13.66;92.82
49473;BME280;73594;50.944;6.950;2024-03-22T07:54:15;101325.88;;;13.81;91.25
49473;BME280;73594;50.944;6.950;2024-03-22T07:56:44;101329.75;;;13.95;91.14
49473;BME280;73594;50.944;6.950;2024-03-22T07:59:10;101330.06;;;14.08;88.66
49473;BME280;73594;50.944;6.950;2024-03-22T08:01:35;101327.41;;;14.19;86.58
49473;BME280;73594;50.944;6.950;2024-03-22T08:04:01;101324.97;;;14.22;85.40
49473;BME280;73594;50.944;6.950;2024-03-22T08:06:26;101322.25;;;14.27;85.16
49473;BME280;73594;50.944;6.950;2024-03-22T08:08:51;101321.72;;;14.30;85.28
49473;BME280;73594;50.944;6.950;2024-03-22T08:11:17;101319.53;;;14.27;85.53
49473;BME280;73594;50.944;6.950;2024-03-22T08:13:42;101324.44;;;14.25;85.23
49473;BME280;73594;50.944;6.950;2024-03-22T08:16:08;101319.00;;;14.25;84.97
49473;BME280;73594;50.944;6.950;2024-03-22T08:18:35;101328.78;;;14.26;84.07
49473;BME280;73594;50.944;6.950;2024-03-22T08:21:00;101321.72;;;14.25;84.85
49473;BME280;73594;50.944;6.950;2024-03-22T08:23:26;101319.53;;;14.27;83.69
49473;BME280;73594;50.944;6.950;2024-03-22T08:25:51;101313.84;;;14.34;82.97
49473;BME280;73594;50.944;6.950;2024-03-22T08:28:16;101312.00;;;14.45;83.10
49473;BME280;73594;50.944;6.950;2024-03-22T08:30:42;101307.97;;;14.57;82.52
49473;BME280;73594;50.944;6.950;2024-03-22T08:33:09;101312.59;;;14.72;81.25
49473;BME280;73594;50.944;6.950;2024-03-22T08:35:34;101313.69;;;14.81;80.32
49473;BME280;73594;50.944;6.950;2024-03-22T08:37:59;101304.97;;;14.79;80.09
49473;BME280;73594;50.944;6.950;2024-03-22T08:40:25;101306.34;;;14.82;80.35
49473;BME280;73594;50.944;6.950;2024-03-22T08:42:51;101285.38;;;14.77;79.61
49473;BME280;73594;50.944;6.950;2024-03-22T08:45:16;101292.47;;;14.83;79.87
49473;BME280;73594;50.944;6.950;2024-03-22T08:47:43;101286.47;;;14.81;78.98
49473;BME280;73594;50.944;6.950;2024-03-22T08:50:10;101296.53;;;14.86;78.92
49473;BME280;73594;50.944;6.950;2024-03-22T08:52:36;101290.03;;;14.87;79.82
49473;BME280;73594;50.944;6.950;2024-03-22T08:55:03;101285.41;;;14.92;79.37
49473;BME280;73594;50.944;6.950;2024-03-22T08:57:29;101282.41;;;14.94;79.33
49473;BME280;73594;50.944;6.950;2024-03-22T08:59:55;101290.31;;;15.00;78.31
49473;BME280;73594;50.944;6.950;2024-03-22T09:02:20;101284.06;;;14.95;76.60
49473;BME280;73594;50.944;6.950;2024-03-22T09:04:46;101287.03;;;15.09;76.76
49473;BME280;73594;50.944;6.950;2024-03-22T09:07:11;101282.41;;;15.09;75.74
49473;BME280;73594;50.944;6.950;2024-03-22T09:09:37;101285.91;;;15.20;75.62
49473;BME280;73594;50.944;6.950;2024-03-22T09:12:02;101284.81;;;15.41;75.85
49473;BME280;73594;50.944;6.950;2024-03-22T09:14:29;101285.03;;;15.55;74.42
49473;BME280;73594;50.944;6.950;2024-03-22T09:16:54;101283.44;;;15.64;72.05
49473;BME280;73594;50.944;6.950;2024-03-22T09:19:20;101277.13;;;15.74;71.68
49473;BME280;73594;50.944;6.950;2024-03-22T09:21:45;101272.50;;;15.74;71.38
49473;BME280;73594;50.944;6.950;2024-03-22T09:24:10;101275.53;;;15.68;70.28
49473;BME280;73594;50.944;6.950;2024-03-22T09:26:36;101269.53;;;15.60;69.59
49473;BME280;73594;50.944;6.950;2024-03-22T09:29:01;101268.41;;;15.56;69.05
49473;BME280;73594;50.944;6.950;2024-03-22T09:31:29;101267.31;;;15.57;70.20
49473;BME280;73594;50.944;6.950;2024-03-22T09:33:56;101269.81;;;15.59;69.12
49473;BME280;73594;50.944;6.950;2024-03-22T09:36:21;101261.06;;;15.52;68.94
49473;BME280;73594;50.944;6.950;2024-03-22T09:38:47;101266.25;;;15.69;69.08
49473;BME280;73594;50.944;6.950;2024-03-22T09:41:14;101260.50;;;15.75;68.46
49473;BME280;73594;50.944;6.950;2024-03-22T09:43:39;101260.53;;;15.60;66.96
49473;BME280;73594;50.944;6.950;2024-03-22T09:46:05;101247.41;;;15.77;67.05
49473;BME280;73594;50.944;6.950;2024-03-22T09:48:31;101251.78;;;15.73;67.50
49473;BME280;73594;50.944;6.950;2024-03-22T09:50:57;101250.16;;;15.72;66.67
49473;BME280;73594;50.944;6.950;2024-03-22T09:53:22;101242.25;;;15.71;66.97
49473;BME280;73594;50.944;6.950;2024-03-22T09:55:52;101241.41;;;15.75;66.86
49473;BME280;73594;50.944;6.950;2024-03-22T09:58:18;101243.78;;;15.92;66.88
49473;BME280;73594;50.944;6.950;2024-03-22T10:00:43;101246.50;;;15.92;66.45
49473;BME280;73594;50.944;6.950;2024-03-22T10:03:12;101239.09;;;16.08;67.24
49473;BME280;73594;50.944;6.950;2024-03-22T10:05:37;101239.31;;;16.16;65.67
49473;BME280;73594;50.944;6.950;2024-03-22T10:08:03;101235.53;;;16.07;64.61
49473;BME280;73594;50.944;6.950;2024-03-22T10:10:31;101236.13;;;16.04;64.79
49473;BME280;73594;50.944;6.950;2024-03-22T10:12:56;101233.63;;;16.08;64.52
49473;BME280;73594;50.944;6.950;2024-03-22T10:15:23;101230.63;;;16.09;65.03
49473;BME280;73594;50.944;6.950;2024-03-22T10:17:49;101222.38;;;16.19;65.76
49473;BME280;73594;50.944;6.950;2024-03-22T10:20:14;101230.28;;;16.21;64.66
49473;BME280;73594;50.944;6.950;2024-03-22T10:22:47;101237.06;;;16.23;64.32
49473;BME280;73594;50.944;6.950;2024-03-22T10:25:13;101216.66;;;16.16;64.49
49473;BME280;73594;50.944;6.950;2024-03-22T10:27:40;101220.78;;;16.13;64.59
49473;BME280;73594;50.944;6.950;2024-03-22T10:30:09;101205.31;;;16.04;64.84
49473;BME280;73594;50.944;6.950;2024-03-22T10:32:37;101209.59;;;16.15;64.61
49473;BME280;73594;50.944;6.950;2024-03-22T10:35:03;101212.53;;;16.23;64.64
49473;BME280;73594;50.944;6.950;2024-03-22T10:37:35;101212.03;;;16.16;64.49
49473;BME280;73594;50.944;6.950;2024-03-22T10:40:05;101204.13;;;16.15;64.50
49473;BME280;73594;50.944;6.950;2024-03-22T10:42:38;101204.88;;;16.25;64.61
49473;BME280;73594;50.944;6.950;2024-03-22T10:45:05;101195.41;;;16.13;65.03
49473;BME280;73594;50.944;6.950;2024-03-22T10:47:33;101196.72;;;16.20;63.99
49473;BME280;73594;50.944;6.950;2024-03-22T10:50:11;101198.59;;;16.25;64.16
49473;BME280;73594;50.944;6.950;2024-03-22T10:52:45;101188.47;;;16.31;64.50
49473;BME280;73594;50.944;6.950;2024-03-22T10:55:44;101188.47;;;16.36;64.48
49473;BME280;73594;50.944;6.950;2024-03-22T10:58:15;101185.41;;;16.42;63.98
49473;BME280;73594;50.944;6.950;2024-03-22T11:00:42;101185.50;;;16.61;64.02
49473;BME280;73594;50.944;6.950;2024-03-22T11:03:12;101179.03;;;16.52;63.75
49473;BME280;73594;50.944;6.950;2024-03-22T11:05:48;101179.81;;;16.57;63.22
49473;BME280;73594;50.944;6.950;2024-03-22T11:08:26;101182.75;;;16.66;63.23
49473;BME280;73594;50.944;6.950;2024-03-22T11:10:52;101172.00;;;16.46;63.04
49473;BME280;73594;50.944;6.950;2024-03-22T11:13:18;101166.72;;;16.20;63.98
49473;BME280;73594;50.944;6.950;2024-03-22T11:15:43;101168.97;;;16.13;64.25
49473;BME280;73594;50.944;6.950;2024-03-22T11:18:09;101163.81;;;16.07;64.74
49473;BME280;73594;50.944;6.950;2024-03-22T11:20:37;101159.19;;;16.07;65.10
49473;BME280;73594;50.944;6.950;2024-03-22T11:23:06;101162.81;;;15.92;65.71
49473;BME280;73594;50.944;6.950;2024-03-22T11:25:32;101149.75;;;15.89;65.95
49473;BME280;73594;50.944;6.950;2024-03-22T11:27:59;101152.44;;;16.00;66.31
49473;BME280;73594;50.944;6.950;2024-03-22T11:30:28;101140.38;;;16.06;65.30
49473;BME280;73594;50.944;6.950;2024-03-22T11:32:54;101138.44;;;16.11;65.70
49473;BME280;73594;50.944;6.950;2024-03-22T11:35:21;101143.88;;;16.11;64.99
49473;BME280;73594;50.944;6.950;2024-03-22T11:37:46;101138.56;;;15.91;65.45
49473;BME280;73594;50.944;6.950;2024-03-22T11:40:12;101131.91;;;16.07;65.94
49473;BME280;73594;50.944;6.950;2024-03-22T11:42:39;101135.56;;;16.26;65.76
49473;BME280;73594;50.944;6.950;2024-03-22T11:45:07;101130.31;;;16.35;64.63
49473;BME280;73594;50.944;6.950;2024-03-22T11:47:33;101132.31;;;16.24;65.13
49473;BME280;73594;50.944;6.950;2024-03-22T11:49:59;101127.34;;;16.32;65.11
49473;BME280;73594;50.944;6.950;2024-03-22T11:52:25;101114.28;;;16.29;63.55
49473;BME280;73594;50.944;6.950;2024-03-22T11:54:54;101119.00;;;16.18;63.20
49473;BME280;73594;50.944;6.950;2024-03-22T11:57:23;101113.75;;;16.26;63.65
49473;BME280;73594;50.944;6.950;2024-03-22T11:59:50;101112.94;;;16.26;63.49
49473;BME280;73594;50.944;6.950;2024-03-22T12:02:17;101108.63;;;16.20;62.95
49473;BME280;73594;50.944;6.950;2024-03-22T12:04:47;101115.13;;;16.24;63.49
49473;BME280;73594;50.944;6.950;2024-03-22T12:07:16;101117.63;;;16.20;63.44
49473;BME280;73594;50.944;6.950;2024-03-22T12:09:41;101120.34;;;16.20;63.31
49473;BME280;73594;50.944;6.950;2024-03-22T12:12:08;101098.72;;;16.29;63.41
49473;BME280;73594;50.944;6.950;2024-03-22T12:14:37;101096.91;;;16.19;63.19
49473;BME280;73594;50.944;6.950;2024-03-22T12:17:04;101110.72;;;15.99;63.40
49473;BME280;73594;50.944;6.950;2024-03-22T12:19:29;101108.47;;;16.06;63.60
49473;BME280;73594;50.944;6.950;2024-03-22T12:21:55;101111.25;;;16.01;63.35
49473;BME280;73594;50.944;6.950;2024-03-22T12:24:21;101107.03;;;15.75;62.48
49473;BME280;73594;50.944;6.950;2024-03-22T12:26:47;101098.84;;;15.80;63.02
49473;BME280;73594;50.944;6.950;2024-03-22T12:29:15;101097.13;;;15.89;63.54
49473;BME280;73594;50.944;6.950;2024-03-22T12:31:42;101104.75;;;15.92;64.43
49473;BME280;73594;50.944;6.950;2024-03-22T12:34:07;101088.19;;;15.83;64.03
49473;BME280;73594;50.944;6.950;2024-03-22T12:36:33;101076.09;;;16.00;64.30
49473;BME280;73594;50.944;6.950;2024-03-22T12:38:58;101082.22;;;16.15;64.43
49473;BME280;73594;50.944;6.950;2024-03-22T12:41:24;101081.63;;;16.18;64.28